sensor_id;sensor_type;location;lat;lon;timestamp;temperature;humidity
3940;DHT22;1984;48.312;9.244;2023-12-20T00:01:40;4.20;99.90
3940;DHT22;1984;48.312;9.244;2023-12-20T00:04:06;4.20;99.90
3940;DHT22;1984;48.312;9.244;2023-12-20T00:06:31;4.20;99.90
3940;DHT22;1984;48.312;9.244;2023-12-20T00:08:57;4.20;99.90
3940;DHT22;1984;48.312;9.244;2023-12-20T00:11:25;4.20;99.90
3940;DHT22;1984;48.312;9.244;2023-12-20T00:13:51;4.20;99.90
3940;DHT22;1984;48.312;9.244;2023-12-20T00:16:17;4.30;99.90
3940;DHT22;1984;48.312;9.244;2023-12-20T00:18:42;4.30;99.90
3940;DHT22;1984;48.312;9.244;2023-12-20T00:21:08;4.30;99.90
3940;DHT22;1984;48.312;9.244;2023-12-20T00:23:33;4.40;99.90
3940;DHT22;1984;48.312;9.244;2023-12-20T00:25:59;4.40;99.90
3940;DHT22;1984;48.312;9.244;2023-12-20T00:28:24;4.30;99.90
3940;DHT22;1984;48.312;9.244;2023-12-20T00:30:49;4.30;99.90
3940;DHT22;1984;48.312;9.244;2023-12-20T00:33:15;4.30;99.90
3940;DHT22;1984;48.312;9.244;2023-12-20T00:35:40;4.20;99.90
3940;DHT22;1984;48.312;9.244;2023-12-20T00:38:06;4.20;99.90
3940;DHT22;1984;48.312;9.244;2023-12-20T00:40:34;4.20;99.90
3940;DHT22;1984;48.312;9.244;2023-12-20T00:42:59;4.10;99.90
3940;DHT22;1984;48.312;9.244;2023-12-20T00:45:25;4.10;99.90
3940;DHT22;1984;48.312;9.244;2023-12-20T00:47:50;4.10;99.90
3940;DHT22;1984;48.312;9.244;2023-12-20T00:50:16;4.00;99.90
3940;DHT22;1984;48.312;9.244;2023-12-20T00:52:41;4.00;99.90
3940;DHT22;1984;48.312;9.244;2023-12-20T00:55:07;3.90;99.90
3940;DHT22;1984;48.312;9.244;2023-12-20T00:57:33;3.90;99.90
3940;DHT22;1984;48.312;9.244;2023-12-20T00:59:58;4.00;99.90
3940;DHT22;1984;48.312;9.244;2023-12-20T01:02:24;4.00;99.90
3940;DHT22;1984;48.312;9.244;2023-12-20T01:04:49;4.00;99.90
3940;DHT22;1984;48.312;9.244;2023-12-20T01:07:15;3.90;99.90
3940;DHT22;1984;48.312;9.244;2023-12-20T01:09:40;3.90;99.90
3940;DHT22;1984;48.312;9.244;2023-12-20T01:12:06;3.90;99.90
3940;DHT22;1984;48.312;9.244;2023-12-20T01:14:31;3.80;99.90
3940;DHT22;1984;48.312;9.244;2023-12-20T01:16:57;3.80;99.90
3940;DHT22;1984;48.312;9.244;2023-12-20T01:19:22;3.80;99.90
3940;DHT22;1984;48.312;9.244;2023-12-20T01:21:50;3.80;99.90
3940;DHT22;1984;48.312;9.244;2023-12-20T01:24:15;3.80;99.90
3940;DHT22;1984;48.312;9.244;2023-12-20T01:26:41;3.70;99.90
3940;DHT22;1984;48.312;9.244;2023-12-20T01:29:07;3.70;99.90
3940;DHT22;1984;48.312;9.244;2023-12-20T01:31:32;3.70;99.90
3940;DHT22;1984;48.312;9.244;2023-12-20T01:33:58;3.70;99.90
3940;DHT22;1984;48.312;9.244;2023-12-20T01:36:23;3.70;99.90
3940;DHT22;1984;48.312;9.244;2023-12-20T01:38:49;3.70;99.90
3940;DHT22;1984;48.312;9.244;2023-12-20T01:41:14;3.70;99.90
3940;DHT22;1984;48.312;9.244;2023-12-20T01:43:40;3.80;99.90
3940;DHT22;1984;48.312;9.244;2023-12-20T01:46:06;3.80;99.90
3940;DHT22;1984;48.312;9.244;2023-12-20T01:48:31;3.80;99.90
3940;DHT22;1984;48.312;9.244;2023-12-20T01:50:59;3.80;99.90
3940;DHT22;1984;48.312;9.244;2023-12-20T01:53:25;3.80;99.90
3940;DHT22;1984;48.312;9.244;2023-12-20T01:55:55;3.80;99.90
3940;DHT22;1984;48.312;9.244;2023-12-20T01:58:22;3.80;99.90
3940;DHT22;1984;48.312;9.244;2023-12-20T02:00:48;3.80;99.90
3940;DHT22;1984;48.312;9.244;2023-12-20T02:03:23;3.70;99.90
3940;DHT22;1984;48.312;9.244;2023-12-20T02:05:50;3.70;99.90
3940;DHT22;1984;48.312;9.244;2023-12-20T02:08:16;3.70;99.90
3940;DHT22;1984;48.312;9.244;2023-12-20T02:10:41;3.70;99.90
3940;DHT22;1984;48.312;9.244;2023-12-20T02:13:07;3.80;99.90
3940;DHT22;1984;48.312;9.244;2023-12-20T02:15:33;3.80;99.90
3940;DHT22;1984;48.312;9.244;2023-12-20T02:17:59;3.70;99.90
3940;DHT22;1984;48.312;9.244;2023-12-20T02:20:24;3.70;99.90
3940;DHT22;1984;48.312;9.244;2023-12-20T02:22:50;3.70;99.90
3940;DHT22;1984;48.312;9.244;2023-12-20T02:25:15;3.70;99.90
3940;DHT22;1984;48.312;9.244;2023-12-20T02:27:41;3.70;99.90
3940;DHT22;1984;48.312;9.244;2023-12-20T02:30:07;3.70;99.90
3940;DHT22;1984;48.312;9.244;2023-12-20T02:32:33;3.80;99.90
3940;DHT22;1984;48.312;9.244;2023-12-20T02:34:58;3.80;99.90
3940;DHT22;1984;48.312;9.244;2023-12-20T02:37:24;3.80;99.90
3940;DHT22;1984;48.312;9.244;2023-12-20T02:39:49;3.80;99.90
3940;DHT22;1984;48.312;9.244;2023-12-20T02:42:15;3.80;99.90
3940;DHT22;1984;48.312;9.244;2023-12-20T02:44:40;3.70;99.90
3940;DHT22;1984;48.312;9.244;2023-12-20T02:47:06;3.70;99.90
3940;DHT22;1984;48.312;9.244;2023-12-20T02:49:31;3.60;99.90
3940;DHT22;1984;48.312;9.244;2023-12-20T02:51:57;3.60;99.90
3940;DHT22;1984;48.312;9.244;2023-12-20T02:54:22;3.60;99.90
3940;DHT22;1984;48.312;9.244;2023-12-20T02:56:48;3.60;99.90
3940;DHT22;1984;48.312;9.244;2023-12-20T02:59:14;3.60;99.90
3940;DHT22;1984;48.312;9.244;2023-12-20T03:01:43;3.60;99.90
3940;DHT22;1984;48.312;9.244;2023-12-20T03:04:09;3.60;99.90
3940;DHT22;1984;48.312;9.244;2023-12-20T03:06:35;3.60;99.90
3940;DHT22;1984;48.312;9.244;2023-12-20T03:09:00;3.70;99.90
3940;DHT22;1984;48.312;9.244;2023-12-20T03:11:29;3.70;99.90
3940;DHT22;1984;48.312;9.244;2023-12-20T03:13:55;3.70;99.90
3940;DHT22;1984;48.312;9.244;2023-12-20T03:16:21;3.70;99.90
3940;DHT22;1984;48.312;9.244;2023-12-20T03:18:46;3.80;99.90
3940;DHT22;1984;48.312;9.244;2023-12-20T03:21:12;3.80;99.90
3940;DHT22;1984;48.312;9.244;2023-12-20T03:23:37;3.90;99.90
3940;DHT22;1984;48.312;9.244;2023-12-20T03:26:03;3.90;99.90
3940;DHT22;1984;48.312;9.244;2023-12-20T03:28:29;4.00;99.90
3940;DHT22;1984;48.312;9.244;2023-12-20T03:30:55;4.00;99.90
3940;DHT22;1984;48.312;9.244;2023-12-20T03:33:21;4.10;99.90
3940;DHT22;1984;48.312;9.244;2023-12-20T03:35:46;4.20;99.90
3940;DHT22;1984;48.312;9.244;2023-12-20T03:38:12;4.20;99.90
3940;DHT22;1984;48.312;9.244;2023-12-20T03:40:37;4.30;99.90
3940;DHT22;1984;48.312;9.244;2023-12-20T03:43:03;4.30;99.90
3940;DHT22;1984;48.312;9.244;2023-12-20T03:45:29;4.40;99.90
3940;DHT22;1984;48.312;9.244;2023-12-20T03:47:54;4.40;99.90
3940;DHT22;1984;48.312;9.244;2023-12-20T03:50:25;4.40;99.90
3940;DHT22;1984;48.312;9.244;2023-12-20T03:52:51;4.50;99.90
3940;DHT22;1984;48.312;9.244;2023-12-20T03:55:17;4.50;99.90
3940;DHT22;1984;48.312;9.244;2023-12-20T03:57:42;4.50;99.90
3940;DHT22;1984;48.312;9.244;2023-12-20T04:00:08;4.40;99.90
3940;DHT22;1984;48.312;9.244;2023-12-20T04:02:38;4.40;99.90
3940;DHT22;1984;48.312;9.244;2023-12-20T04:05:04;4.50;99.90
3940;DHT22;1984;48.312;9.244;2023-12-20T04:07:30;4.50;99.90
3940;DHT22;1984;48.312;9.244;2023-12-20T04:09:56;4.50;99.90
3940;DHT22;1984;48.312;9.244;2023-12-20T04:12:21;4.50;99.90
3940;DHT22;1984;48.312;9.244;2023-12-20T04:14:46;4.50;99.90
3940;DHT22;1984;48.312;9.244;2023-12-20T04:17:12;4.50;99.90
3940;DHT22;1984;48.312;9.244;2023-12-20T04:19:38;4.50;99.90
3940;DHT22;1984;48.312;9.244;2023-12-20T04:22:03;4.50;99.90
3940;DHT22;1984;48.312;9.244;2023-12-20T04:24:29;4.40;99.90
3940;DHT22;1984;48.312;9.244;2023-12-20T04:26:54;4.40;99.90
3940;DHT22;1984;48.312;9.244;2023-12-20T04:29:20;4.40;99.90
3940;DHT22;1984;48.312;9.244;2023-12-20T04:31:45;4.40;99.90
3940;DHT22;1984;48.312;9.244;2023-12-20T04:34:11;4.30;99.90
3940;DHT22;1984;48.312;9.244;2023-12-20T04:36:36;4.30;99.90
3940;DHT22;1984;48.312;9.244;2023-12-20T04:39:02;4.30;99.90
3940;DHT22;1984;48.312;9.244;2023-12-20T04:41:28;4.30;99.90
3940;DHT22;1984;48.312;9.244;2023-12-20T04:43:54;4.20;99.90
3940;DHT22;1984;48.312;9.244;2023-12-20T04:46:19;4.20;99.90
3940;DHT22;1984;48.312;9.244;2023-12-20T04:48:44;4.20;99.90
3940;DHT22;1984;48.312;9.244;2023-12-20T04:51:10;4.20;99.90
3940;DHT22;1984;48.312;9.244;2023-12-20T04:53:36;4.20;99.90
3940;DHT22;1984;48.312;9.244;2023-12-20T04:56:01;4.20;99.90
3940;DHT22;1984;48.312;9.244;2023-12-20T04:58:27;4.10;99.90
3940;DHT22;1984;48.312;9.244;2023-12-20T05:00:52;4.10;99.90
3940;DHT22;1984;48.312;9.244;2023-12-20T05:03:18;4.10;99.90
3940;DHT22;1984;48.312;9.244;2023-12-20T05:05:43;4.20;99.90
3940;DHT22;1984;48.312;9.244;2023-12-20T05:08:09;4.20;99.90
3940;DHT22;1984;48.312;9.244;2023-12-20T05:10:34;4.20;99.90
3940;DHT22;1984;48.312;9.244;2023-12-20T05:13:01;4.30;99.90
3940;DHT22;1984;48.312;9.244;2023-12-20T05:15:27;4.30;99.90
3940;DHT22;1984;48.312;9.244;2023-12-20T05:17:52;4.30;99.90
3940;DHT22;1984;48.312;9.244;2023-12-20T05:20:18;4.30;99.90
3940;DHT22;1984;48.312;9.244;2023-12-20T05:22:43;4.30;99.90
3940;DHT22;1984;48.312;9.244;2023-12-20T05:25:10;4.30;99.90
3940;DHT22;1984;48.312;9.244;2023-12-20T05:27:36;4.20;99.90
3940;DHT22;1984;48.312;9.244;2023-12-20T05:30:01;4.20;99.90
3940;DHT22;1984;48.312;9.244;2023-12-20T05:32:27;4.30;99.90
3940;DHT22;1984;48.312;9.244;2023-12-20T05:34:52;4.20;99.90
3940;DHT22;1984;48.312;9.244;2023-12-20T05:37:18;4.20;99.90
3940;DHT22;1984;48.312;9.244;2023-12-20T05:39:43;4.20;99.90
3940;DHT22;1984;48.312;9.244;2023-12-20T05:42:09;4.10;99.90
3940;DHT22;1984;48.312;9.244;2023-12-20T05:44:34;4.20;99.90
3940;DHT22;1984;48.312;9.244;2023-12-20T05:46:59;4.10;99.90
3940;DHT22;1984;48.312;9.244;2023-12-20T05:49:25;4.20;99.90
3940;DHT22;1984;48.312;9.244;2023-12-20T05:51:50;4.20;99.90
3940;DHT22;1984;48.312;9.244;2023-12-20T05:54:16;4.20;99.90
3940;DHT22;1984;48.312;9.244;2023-12-20T05:56:42;4.20;99.90
3940;DHT22;1984;48.312;9.244;2023-12-20T05:59:07;4.20;99.90
3940;DHT22;1984;48.312;9.244;2023-12-20T06:01:33;4.20;99.90
3940;DHT22;1984;48.312;9.244;2023-12-20T06:03:58;4.20;99.90
3940;DHT22;1984;48.312;9.244;2023-12-20T06:06:24;4.20;99.90
3940;DHT22;1984;48.312;9.244;2023-12-20T06:08:49;4.20;99.90
3940;DHT22;1984;48.312;9.244;2023-12-20T06:11:15;4.20;99.90
3940;DHT22;1984;48.312;9.244;2023-12-20T06:13:41;4.20;99.90
3940;DHT22;1984;48.312;9.244;2023-12-20T06:16:06;4.20;99.90
3940;DHT22;1984;48.312;9.244;2023-12-20T06:18:34;4.20;99.90
3940;DHT22;1984;48.312;9.244;2023-12-20T06:21:02;4.30;99.90
3940;DHT22;1984;48.312;9.244;2023-12-20T06:23:27;4.20;99.90
3940;DHT22;1984;48.312;9.244;2023-12-20T06:25:53;4.20;99.90
3940;DHT22;1984;48.312;9.244;2023-12-20T06:28:19;4.20;99.90
3940;DHT22;1984;48.312;9.244;2023-12-20T06:30:44;4.20;99.90
3940;DHT22;1984;48.312;9.244;2023-12-20T06:33:11;4.20;99.90
3940;DHT22;1984;48.312;9.244;2023-12-20T06:35:36;4.20;99.90
3940;DHT22;1984;48.312;9.244;2023-12-20T06:38:02;4.20;99.90
3940;DHT22;1984;48.312;9.244;2023-12-20T06:40:28;4.20;99.90
3940;DHT22;1984;48.312;9.244;2023-12-20T06:42:53;4.20;99.90
3940;DHT22;1984;48.312;9.244;2023-12-20T06:45:19;4.20;99.90
3940;DHT22;1984;48.312;9.244;2023-12-20T06:47:45;4.20;99.90
3940;DHT22;1984;48.312;9.244;2023-12-20T06:50:10;4.20;99.90
3940;DHT22;1984;48.312;9.244;2023-12-20T06:52:36;4.20;99.90
3940;DHT22;1984;48.312;9.244;2023-12-20T06:55:01;4.20;99.90
3940;DHT22;1984;48.312;9.244;2023-12-20T06:57:27;4.20;99.90
3940;DHT22;1984;48.312;9.244;2023-12-20T06:59:53;4.30;99.90
3940;DHT22;1984;48.312;9.244;2023-12-20T07:02:19;4.20;99.90
3940;DHT22;1984;48.312;9.244;2023-12-20T07:04:44;4.20;99.90
3940;DHT22;1984;48.312;9.244;2023-12-20T07:07:10;4.30;99.90
3940;DHT22;1984;48.312;9.244;2023-12-20T07:09:35;4.30;99.90
3940;DHT22;1984;48.312;9.244;2023-12-20T07:12:01;4.40;99.90
3940;DHT22;1984;48.312;9.244;2023-12-20T07:14:27;4.40;99.90
3940;DHT22;1984;48.312;9.244;2023-12-20T07:16:53;4.40;99.90
3940;DHT22;1984;48.312;9.244;2023-12-20T07:19:19;4.40;99.90
3940;DHT22;1984;48.312;9.244;2023-12-20T07:21:44;4.40;99.90
3940;DHT22;1984;48.312;9.244;2023-12-20T07:24:10;4.50;99.90
3940;DHT22;1984;48.312;9.244;2023-12-20T07:26:35;4.50;99.90
3940;DHT22;1984;48.312;9.244;2023-12-20T07:29:03;4.50;99.90
3940;DHT22;1984;48.312;9.244;2023-12-20T07:31:29;4.60;99.90
3940;DHT22;1984;48.312;9.244;2023-12-20T07:33:55;4.60;99.90
3940;DHT22;1984;48.312;9.244;2023-12-20T07:36:20;4.70;99.90
3940;DHT22;1984;48.312;9.244;2023-12-20T07:38:47;4.70;99.90
3940;DHT22;1984;48.312;9.244;2023-12-20T07:41:12;4.70;99.90
3940;DHT22;1984;48.312;9.244;2023-12-20T07:43:38;4.80;99.90
3940;DHT22;1984;48.312;9.244;2023-12-20T07:46:05;4.80;99.90
3940;DHT22;1984;48.312;9.244;2023-12-20T07:48:31;4.80;99.90
3940;DHT22;1984;48.312;9.244;2023-12-20T07:50:56;4.90;99.90
3940;DHT22;1984;48.312;9.244;2023-12-20T07:53:22;4.80;99.90
3940;DHT22;1984;48.312;9.244;2023-12-20T07:55:47;4.80;99.90
3940;DHT22;1984;48.312;9.244;2023-12-20T07:58:13;4.80;99.90
3940;DHT22;1984;48.312;9.244;2023-12-20T08:00:38;4.80;99.90
3940;DHT22;1984;48.312;9.244;2023-12-20T08:03:04;4.80;99.90
3940;DHT22;1984;48.312;9.244;2023-12-20T08:05:30;4.80;99.90
3940;DHT22;1984;48.312;9.244;2023-12-20T08:07:55;4.80;99.90
3940;DHT22;1984;48.312;9.244;2023-12-20T08:10:21;4.80;99.90
3940;DHT22;1984;48.312;9.244;2023-12-20T08:12:46;4.80;99.90
3940;DHT22;1984;48.312;9.244;2023-12-20T08:15:12;4.70;99.90
3940;DHT22;1984;48.312;9.244;2023-12-20T08:17:37;4.70;99.90
3940;DHT22;1984;48.312;9.244;2023-12-20T08:20:03;4.70;99.90
3940;DHT22;1984;48.312;9.244;2023-12-20T08:22:30;4.80;99.90
3940;DHT22;1984;48.312;9.244;2023-12-20T08:24:55;4.70;99.90
3940;DHT22;1984;48.312;9.244;2023-12-20T08:27:21;4.70;99.90
3940;DHT22;1984;48.312;9.244;2023-12-20T08:29:46;4.70;99.90
3940;DHT22;1984;48.312;9.244;2023-12-20T08:32:12;4.70;99.90
3940;DHT22;1984;48.312;9.244;2023-12-20T08:34:38;4.60;99.90
3940;DHT22;1984;48.312;9.244;2023-12-20T08:37:03;4.70;99.90
3940;DHT22;1984;48.312;9.244;2023-12-20T08:39:29;4.70;99.90
3940;DHT22;1984;48.312;9.244;2023-12-20T08:41:55;4.70;99.90
3940;DHT22;1984;48.312;9.244;2023-12-20T08:44:20;4.80;99.90
3940;DHT22;1984;48.312;9.244;2023-12-20T08:46:47;4.80;99.90
3940;DHT22;1984;48.312;9.244;2023-12-20T08:49:13;4.80;99.90
3940;DHT22;1984;48.312;9.244;2023-12-20T08:51:39;4.90;99.90
3940;DHT22;1984;48.312;9.244;2023-12-20T08:54:06;5.00;99.90
3940;DHT22;1984;48.312;9.244;2023-12-20T08:56:33;5.00;99.90
3940;DHT22;1984;48.312;9.244;2023-12-20T08:58:59;5.00;99.90
3940;DHT22;1984;48.312;9.244;2023-12-20T09:01:24;4.90;99.90
3940;DHT22;1984;48.312;9.244;2023-12-20T09:03:50;4.90;99.90
3940;DHT22;1984;48.312;9.244;2023-12-20T09:06:15;5.00;99.90
3940;DHT22;1984;48.312;9.244;2023-12-20T09:08:41;5.10;99.90
3940;DHT22;1984;48.312;9.244;2023-12-20T09:11:07;5.20;99.90
3940;DHT22;1984;48.312;9.244;2023-12-20T09:13:32;5.30;99.90
3940;DHT22;1984;48.312;9.244;2023-12-20T09:15:58;5.30;99.90
3940;DHT22;1984;48.312;9.244;2023-12-20T09:18:24;5.30;99.90
3940;DHT22;1984;48.312;9.244;2023-12-20T09:20:49;5.30;99.90
3940;DHT22;1984;48.312;9.244;2023-12-20T09:23:15;5.30;99.90
3940;DHT22;1984;48.312;9.244;2023-12-20T09:25:40;5.30;99.90
3940;DHT22;1984;48.312;9.244;2023-12-20T09:28:06;5.20;99.90
3940;DHT22;1984;48.312;9.244;2023-12-20T09:30:32;5.20;99.90
3940;DHT22;1984;48.312;9.244;2023-12-20T09:32:57;5.30;99.90
3940;DHT22;1984;48.312;9.244;2023-12-20T09:35:23;5.20;99.90
3940;DHT22;1984;48.312;9.244;2023-12-20T09:37:49;5.30;99.90
3940;DHT22;1984;48.312;9.244;2023-12-20T09:40:18;5.40;99.90
3940;DHT22;1984;48.312;9.244;2023-12-20T09:45:16;5.60;99.90
3940;DHT22;1984;48.312;9.244;2023-12-20T09:47:44;5.60;99.90
3940;DHT22;1984;48.312;9.244;2023-12-20T09:50:11;5.60;99.90
3940;DHT22;1984;48.312;9.244;2023-12-20T09:52:39;5.60;99.90
3940;DHT22;1984;48.312;9.244;2023-12-20T09:55:04;5.60;99.90
3940;DHT22;1984;48.312;9.244;2023-12-20T09:57:33;5.60;99.90
3940;DHT22;1984;48.312;9.244;2023-12-20T09:59:59;5.60;99.90
3940;DHT22;1984;48.312;9.244;2023-12-20T10:02:25;5.50;99.90
3940;DHT22;1984;48.312;9.244;2023-12-20T10:04:55;5.40;99.90
3940;DHT22;1984;48.312;9.244;2023-12-20T10:07:21;5.20;99.90
3940;DHT22;1984;48.312;9.244;2023-12-20T10:09:47;5.10;99.90
3940;DHT22;1984;48.312;9.244;2023-12-20T10:12:13;4.90;99.90
3940;DHT22;1984;48.312;9.244;2023-12-20T10:14:39;4.70;99.90
3940;DHT22;1984;48.312;9.244;2023-12-20T10:17:05;4.40;99.90
3940;DHT22;1984;48.312;9.244;2023-12-20T10:19:32;4.30;99.90
3940;DHT22;1984;48.312;9.244;2023-12-20T10:21:59;4.20;99.90
3940;DHT22;1984;48.312;9.244;2023-12-20T10:24:25;4.10;99.90
3940;DHT22;1984;48.312;9.244;2023-12-20T10:27:04;4.10;99.90
3940;DHT22;1984;48.312;9.244;2023-12-20T10:29:36;4.10;99.90
3940;DHT22;1984;48.312;9.244;2023-12-20T10:32:21;4.10;99.90
3940;DHT22;1984;48.312;9.244;2023-12-20T10:34:47;4.30;99.90
3940;DHT22;1984;48.312;9.244;2023-12-20T10:37:12;4.40;99.90
3940;DHT22;1984;48.312;9.244;2023-12-20T10:39:39;4.50;99.90
3940;DHT22;1984;48.312;9.244;2023-12-20T10:42:04;4.60;99.90
3940;DHT22;1984;48.312;9.244;2023-12-20T10:44:30;4.50;99.90
3940;DHT22;1984;48.312;9.244;2023-12-20T10:46:56;4.40;99.90
3940;DHT22;1984;48.312;9.244;2023-12-20T10:49:24;4.40;99.90
3940;DHT22;1984;48.312;9.244;2023-12-20T10:51:53;4.40;99.90
3940;DHT22;1984;48.312;9.244;2023-12-20T10:54:19;4.40;99.90
3940;DHT22;1984;48.312;9.244;2023-12-20T10:56:45;4.40;99.90
3940;DHT22;1984;48.312;9.244;2023-12-20T10:59:12;4.30;99.90
3940;DHT22;1984;48.312;9.244;2023-12-20T11:01:40;4.20;99.90
3940;DHT22;1984;48.312;9.244;2023-12-20T11:04:08;4.30;99.90
3940;DHT22;1984;48.312;9.244;2023-12-20T11:06:43;4.30;99.90
3940;DHT22;1984;48.312;9.244;2023-12-20T11:09:17;4.20;99.90
3940;DHT22;1984;48.312;9.244;2023-12-20T11:11:49;4.20;99.90
3940;DHT22;1984;48.312;9.244;2023-12-20T11:14:33;4.20;99.90
3940;DHT22;1984;48.312;9.244;2023-12-20T11:17:09;4.00;99.90
3940;DHT22;1984;48.312;9.244;2023-12-20T11:22:25;4.00;99.90
3940;DHT22;1984;48.312;9.244;2023-12-20T11:24:52;4.10;99.90
3940;DHT22;1984;48.312;9.244;2023-12-20T11:27:18;4.20;99.90
3940;DHT22;1984;48.312;9.244;2023-12-20T11:29:58;4.20;99.90
3940;DHT22;1984;48.312;9.244;2023-12-20T11:34:58;4.30;99.90
3940;DHT22;1984;48.312;9.244;2023-12-20T11:37:31;4.30;99.90
3940;DHT22;1984;48.312;9.244;2023-12-20T11:40:07;4.40;99.90
3940;DHT22;1984;48.312;9.244;2023-12-20T11:42:50;4.30;99.90
3940;DHT22;1984;48.312;9.244;2023-12-20T11:45:18;4.40;99.90
3940;DHT22;1984;48.312;9.244;2023-12-20T11:47:49;4.50;99.90
3940;DHT22;1984;48.312;9.244;2023-12-20T11:50:21;4.60;99.90
3940;DHT22;1984;48.312;9.244;2023-12-20T11:52:48;4.80;99.90
3940;DHT22;1984;48.312;9.244;2023-12-20T11:55:13;4.80;99.90
3940;DHT22;1984;48.312;9.244;2023-12-20T11:57:39;4.80;99.90
3940;DHT22;1984;48.312;9.244;2023-12-20T12:00:05;4.80;99.90
3940;DHT22;1984;48.312;9.244;2023-12-20T12:02:32;4.80;99.90
3940;DHT22;1984;48.312;9.244;2023-12-20T12:04:57;4.80;99.90
3940;DHT22;1984;48.312;9.244;2023-12-20T12:07:24;4.70;99.90
3940;DHT22;1984;48.312;9.244;2023-12-20T12:09:50;4.60;99.90
3940;DHT22;1984;48.312;9.244;2023-12-20T12:12:16;4.50;99.90
3940;DHT22;1984;48.312;9.244;2023-12-20T12:14:42;4.60;99.90
3940;DHT22;1984;48.312;9.244;2023-12-20T12:17:14;4.80;99.90
3940;DHT22;1984;48.312;9.244;2023-12-20T12:19:40;5.00;99.90
3940;DHT22;1984;48.312;9.244;2023-12-20T12:22:07;5.00;99.90
3940;DHT22;1984;48.312;9.244;2023-12-20T12:24:44;5.00;99.90
3940;DHT22;1984;48.312;9.244;2023-12-20T12:27:11;5.00;99.90
3940;DHT22;1984;48.312;9.244;2023-12-20T12:29:37;5.00;99.90
3940;DHT22;1984;48.312;9.244;2023-12-20T12:32:07;4.90;99.90
3940;DHT22;1984;48.312;9.244;2023-12-20T12:34:33;4.80;99.90
3940;DHT22;1984;48.312;9.244;2023-12-20T12:37:00;4.70;99.90
3940;DHT22;1984;48.312;9.244;2023-12-20T12:39:25;4.70;99.90
3940;DHT22;1984;48.312;9.244;2023-12-20T12:41:51;4.60;99.90
3940;DHT22;1984;48.312;9.244;2023-12-20T12:44:17;4.50;99.90
3940;DHT22;1984;48.312;9.244;2023-12-20T12:46:44;4.50;99.90
3940;DHT22;1984;48.312;9.244;2023-12-20T12:49:09;4.40;99.90
3940;DHT22;1984;48.312;9.244;2023-12-20T12:51:35;4.30;99.90
3940;DHT22;1984;48.312;9.244;2023-12-20T12:54:00;4.30;99.90
3940;DHT22;1984;48.312;9.244;2023-12-20T12:56:26;4.30;99.90
3940;DHT22;1984;48.312;9.244;2023-12-20T12:58:51;4.30;99.90
3940;DHT22;1984;48.312;9.244;2023-12-20T13:01:17;4.20;99.90
3940;DHT22;1984;48.312;9.244;2023-12-20T13:03:43;4.10;99.90
3940;DHT22;1984;48.312;9.244;2023-12-20T13:06:08;4.00;99.90
3940;DHT22;1984;48.312;9.244;2023-12-20T13:08:34;4.00;99.90
3940;DHT22;1984;48.312;9.244;2023-12-20T13:11:00;4.00;99.90
3940;DHT22;1984;48.312;9.244;2023-12-20T13:13:27;4.00;99.90
3940;DHT22;1984;48.312;9.244;2023-12-20T13:15:52;4.00;99.90
3940;DHT22;1984;48.312;9.244;2023-12-20T13:18:20;4.00;99.90
3940;DHT22;1984;48.312;9.244;2023-12-20T13:20:46;3.90;99.90
3940;DHT22;1984;48.312;9.244;2023-12-20T13:23:12;3.80;99.90
3940;DHT22;1984;48.312;9.244;2023-12-20T13:25:37;3.80;99.90
3940;DHT22;1984;48.312;9.244;2023-12-20T13:28:03;3.80;99.90
3940;DHT22;1984;48.312;9.244;2023-12-20T13:30:29;3.80;99.90
3940;DHT22;1984;48.312;9.244;2023-12-20T13:32:55;3.80;99.90
3940;DHT22;1984;48.312;9.244;2023-12-20T13:35:20;3.80;99.90
3940;DHT22;1984;48.312;9.244;2023-12-20T13:37:46;3.80;99.90
3940;DHT22;1984;48.312;9.244;2023-12-20T13:40:12;3.80;99.90
3940;DHT22;1984;48.312;9.244;2023-12-20T13:42:38;3.80;99.90
3940;DHT22;1984;48.312;9.244;2023-12-20T13:45:04;3.80;99.90
3940;DHT22;1984;48.312;9.244;2023-12-20T13:47:31;3.80;99.90
3940;DHT22;1984;48.312;9.244;2023-12-20T13:49:57;3.70;99.90
3940;DHT22;1984;48.312;9.244;2023-12-20T13:52:22;3.60;99.90
3940;DHT22;1984;48.312;9.244;2023-12-20T13:54:48;3.60;99.90
3940;DHT22;1984;48.312;9.244;2023-12-20T13:57:13;3.60;99.90
3940;DHT22;1984;48.312;9.244;2023-12-20T13:59:39;3.60;99.90
3940;DHT22;1984;48.312;9.244;2023-12-20T14:02:05;3.50;99.90
3940;DHT22;1984;48.312;9.244;2023-12-20T14:04:30;3.50;99.90
3940;DHT22;1984;48.312;9.244;2023-12-20T14:06:56;3.50;99.90
3940;DHT22;1984;48.312;9.244;2023-12-20T14:09:22;3.50;99.90
3940;DHT22;1984;48.312;9.244;2023-12-20T14:11:48;3.40;99.90
3940;DHT22;1984;48.312;9.244;2023-12-20T14:14:14;3.50;99.90
3940;DHT22;1984;48.312;9.244;2023-12-20T14:16:39;3.50;99.90
3940;DHT22;1984;48.312;9.244;2023-12-20T14:19:04;3.50;99.90
3940;DHT22;1984;48.312;9.244;2023-12-20T14:21:33;3.60;99.90
3940;DHT22;1984;48.312;9.244;2023-12-20T14:23:58;3.70;99.90
3940;DHT22;1984;48.312;9.244;2023-12-20T14:26:24;3.70;99.90
3940;DHT22;1984;48.312;9.244;2023-12-20T14:28:50;3.60;99.90
3940;DHT22;1984;48.312;9.244;2023-12-20T14:31:15;3.50;99.90
3940;DHT22;1984;48.312;9.244;2023-12-20T14:33:41;3.40;99.90
3940;DHT22;1984;48.312;9.244;2023-12-20T14:36:07;3.40;99.90
3940;DHT22;1984;48.312;9.244;2023-12-20T14:38:34;3.30;99.90
3940;DHT22;1984;48.312;9.244;2023-12-20T14:40:59;3.30;99.90
3940;DHT22;1984;48.312;9.244;2023-12-20T14:43:26;3.40;99.90
3940;DHT22;1984;48.312;9.244;2023-12-20T14:45:55;3.40;99.90
3940;DHT22;1984;48.312;9.244;2023-12-20T14:48:20;3.40;99.90
3940;DHT22;1984;48.312;9.244;2023-12-20T14:50:46;3.40;99.90
3940;DHT22;1984;48.312;9.244;2023-12-20T14:53:14;3.50;99.90
3940;DHT22;1984;48.312;9.244;2023-12-20T14:55:40;3.50;99.90
3940;DHT22;1984;48.312;9.244;2023-12-20T14:58:06;3.50;99.90
3940;DHT22;1984;48.312;9.244;2023-12-20T15:00:31;3.50;99.90
3940;DHT22;1984;48.312;9.244;2023-12-20T15:02:57;3.50;99.90
3940;DHT22;1984;48.312;9.244;2023-12-20T15:05:22;3.50;99.90
3940;DHT22;1984;48.312;9.244;2023-12-20T15:07:48;3.50;99.90
3940;DHT22;1984;48.312;9.244;2023-12-20T15:10:14;3.50;99.90
3940;DHT22;1984;48.312;9.244;2023-12-20T15:12:39;3.50;99.90
3940;DHT22;1984;48.312;9.244;2023-12-20T15:15:05;3.40;99.90
3940;DHT22;1984;48.312;9.244;2023-12-20T15:17:31;3.40;99.90
3940;DHT22;1984;48.312;9.244;2023-12-20T15:19:57;3.40;99.90
3940;DHT22;1984;48.312;9.244;2023-12-20T15:22:22;3.40;99.90
3940;DHT22;1984;48.312;9.244;2023-12-20T15:24:49;3.40;99.90
3940;DHT22;1984;48.312;9.244;2023-12-20T15:27:16;3.40;99.90
3940;DHT22;1984;48.312;9.244;2023-12-20T15:29:43;3.40;99.90
3940;DHT22;1984;48.312;9.244;2023-12-20T15:32:08;3.40;99.90
3940;DHT22;1984;48.312;9.244;2023-12-20T15:34:34;3.40;99.90
3940;DHT22;1984;48.312;9.244;2023-12-20T15:36:59;3.40;99.90
3940;DHT22;1984;48.312;9.244;2023-12-20T15:39:25;3.40;99.90
3940;DHT22;1984;48.312;9.244;2023-12-20T15:41:51;3.40;99.90
3940;DHT22;1984;48.312;9.244;2023-12-20T15:44:17;3.50;99.90
3940;DHT22;1984;48.312;9.244;2023-12-20T15:46:43;3.40;99.90
3940;DHT22;1984;48.312;9.244;2023-12-20T15:49:08;3.40;99.90
3940;DHT22;1984;48.312;9.244;2023-12-20T15:51:36;3.50;99.90
3940;DHT22;1984;48.312;9.244;2023-12-20T15:54:02;3.50;99.90
3940;DHT22;1984;48.312;9.244;2023-12-20T15:56:34;3.50;99.90
3940;DHT22;1984;48.312;9.244;2023-12-20T15:58:59;3.50;99.90
3940;DHT22;1984;48.312;9.244;2023-12-20T16:01:25;3.50;99.90
3940;DHT22;1984;48.312;9.244;2023-12-20T16:03:51;3.50;99.90
3940;DHT22;1984;48.312;9.244;2023-12-20T16:06:17;3.40;99.90
3940;DHT22;1984;48.312;9.244;2023-12-20T16:08:42;3.40;99.90
3940;DHT22;1984;48.312;9.244;2023-12-20T16:11:08;3.40;99.90
3940;DHT22;1984;48.312;9.244;2023-12-20T16:13:34;3.30;99.90
3940;DHT22;1984;48.312;9.244;2023-12-20T16:16:03;3.30;99.90
3940;DHT22;1984;48.312;9.244;2023-12-20T16:18:29;3.30;99.90